Time;durP1;ratioP1;P1;durP2;ratioP2;P2;SDS_P1;SDS_P2;PMS_P1;PMS_P2;Temp;Humidity;BMP_temperature;BMP_pressure;BME280_temperature;BME280_humidity;BME280_pressure;Samples;Min_cycle;Max_cycle;Signal;HPM_P1;HPM_P2
2023/12/26 00:00:44;;;;;;;36.30;14.38;;;;;;;5.48;69.46;95378.56;5054706;28;20036;-85
2023/12/26 00:03:10;;;;;;;37.00;16.10;;;;;;;5.27;70.40;95391.34;5038114;28;20555;-84
2023/12/26 00:05:36;;;;;;;43.25;15.95;;;;;;;5.22;70.73;95396.50;5038701;28;20081;-87
2023/12/26 00:08:03;;;;;;;32.78;14.57;;;;;;;5.27;70.64;95395.81;5053768;28;20029;-87
2023/12/26 00:10:29;;;;;;;46.20;16.85;;;;;;;4.41;70.61;95260.16;5052777;28;20507;-86
2023/12/26 00:12:55;;;;;;;36.60;15.68;;;;;;;4.72;69.92;95291.22;5052581;28;20120;-86
2023/12/26 00:15:21;;;;;;;43.58;15.25;;;;;;;5.03;70.71;95372.22;5052765;28;20064;-86
2023/12/26 00:17:46;;;;;;;33.97;13.32;;;;;;;4.90;70.43;95346.22;5034990;28;20134;-87
2023/12/26 00:20:12;;;;;;;41.45;15.75;;;;;;;5.15;70.58;95384.53;5052458;28;20392;-87
2023/12/26 00:22:37;;;;;;;33.10;13.90;;;;;;;5.11;70.87;95371.06;5024304;28;20037;-86
2023/12/26 00:25:03;;;;;;;37.85;15.02;;;;;;;5.34;70.63;95402.50;5014360;28;20037;-86
2023/12/26 00:27:29;;;;;;;40.17;15.45;;;;;;;5.12;70.39;95364.75;5031918;28;20095;-87
2023/12/26 00:29:55;;;;;;;35.30;15.20;;;;;;;4.80;70.42;95321.59;5034333;28;20039;-87
2023/12/26 00:32:20;;;;;;;45.05;15.25;;;;;;;5.31;70.44;95405.63;5034571;28;20037;-86
2023/12/26 00:34:46;;;;;;;42.15;16.17;;;;;;;5.22;70.03;95391.25;5034224;28;20051;-86
2023/12/26 00:37:11;;;;;;;41.08;15.65;;;;;;;5.31;69.77;95423.25;5052344;28;20033;-86
2023/12/26 00:39:37;;;;;;;40.35;14.70;;;;;;;5.17;69.71;95399.06;5034480;28;20025;-86
2023/12/26 00:42:02;;;;;;;37.67;16.08;;;;;;;4.91;70.44;95379.34;5034894;28;20388;-86
2023/12/26 00:44:28;;;;;;;35.05;14.50;;;;;;;4.92;70.01;95390.66;5052882;28;20258;-87
2023/12/26 00:46:54;;;;;;;29.17;14.32;;;;;;;5.21;70.58;95429.09;5033520;28;20040;-86
2023/12/26 00:49:19;;;;;;;43.58;16.40;;;;;;;4.76;70.12;95354.59;5052243;28;20068;-87
2023/12/26 00:51:45;;;;;;;33.67;14.73;;;;;;;4.50;70.46;95321.78;5034553;28;20102;-86
2023/12/26 00:54:10;;;;;;;42.83;15.52;;;;;;;5.14;70.24;95409.22;5034581;28;20090;-86
2023/12/26 00:56:36;;;;;;;39.22;14.82;;;;;;;5.16;69.82;95417.69;5035275;28;20033;-82
2023/12/26 00:59:02;;;;;;;37.47;16.73;;;;;;;4.13;69.94;95266.94;5053574;28;20043;-82
2023/12/26 01:01:27;;;;;;;40.83;15.80;;;;;;;5.24;69.85;95438.34;5035693;28;20029;-82
2023/12/26 01:03:53;;;;;;;42.97;16.75;;;;;;;4.99;70.10;95413.16;5036687;28;20515;-82
2023/12/26 01:06:18;;;;;;;43.05;16.48;;;;;;;4.45;70.21;95332.97;5035002;28;20033;-82
2023/12/26 01:08:44;;;;;;;38.95;17.33;;;;;;;4.36;70.51;95321.22;5035975;28;20056;-81
2023/12/26 01:11:09;;;;;;;60.78;24.77;;;;;;;4.84;70.73;95391.81;5036049;28;20478;-81
2023/12/26 01:13:35;;;;;;;47.58;18.92;;;;;;;4.75;70.80;95377.44;5034715;28;20037;-81
2023/12/26 01:16:02;;;;;;;48.10;18.90;;;;;;;5.02;70.46;95422.41;5053130;28;20040;-85
2023/12/26 01:18:31;;;;;;;42.97;17.58;;;;;;;4.87;70.72;95398.47;5034429;28;20398;-85
2023/12/26 01:20:57;;;;;;;48.85;17.58;;;;;;;4.17;70.85;95281.19;5052153;28;20037;-85
2023/12/26 01:23:23;;;;;;;35.30;15.73;;;;;;;4.60;70.52;95345.63;5033575;28;20040;-84
2023/12/26 01:25:49;;;;;;;48.58;16.85;;;;;;;4.78;70.48;95376.19;5052481;28;20041;-84
2023/12/26 01:28:15;;;;;;;39.65;16.13;;;;;;;3.94;71.17;95320.59;5034169;28;20495;-84
2023/12/26 01:30:41;;;;;;;44.50;18.25;;;;;;;3.98;71.51;95315.66;5034377;28;20423;-84
2023/12/26 01:33:07;;;;;;;49.70;18.55;;;;;;;3.69;71.13;95242.09;5035015;28;20044;-85
2023/12/26 01:35:33;;;;;;;37.45;17.02;;;;;;;3.60;71.04;95232.19;5037507;28;20064;-84
2023/12/26 01:37:58;;;;;;;45.95;20.13;;;;;;;4.20;71.03;95338.47;5037794;28;20037;-84
2023/12/26 01:40:24;;;;;;;46.75;18.55;;;;;;;4.78;71.09;95434.81;5038070;28;20040;-84
2023/12/26 01:42:50;;;;;;;39.90;17.58;;;;;;;4.77;71.43;95435.81;5055972;28;20073;-84
2023/12/26 01:45:16;;;;;;;50.25;18.73;;;;;;;3.85;72.40;95317.50;5055496;28;20037;-84
2023/12/26 01:47:48;;;;;;;41.92;16.65;;;;;;;4.24;71.87;95372.94;5037586;28;20068;-85
2023/12/26 01:50:15;;;;;;;47.67;18.20;;;;;;;4.09;71.76;95334.03;5055313;28;20037;-84
2023/12/26 01:52:41;;;;;;;46.50;17.90;;;;;;;3.81;71.77;95286.72;5055327;28;20113;-84
2023/12/26 01:55:08;;;;;;;49.03;17.52;;;;;;;4.39;71.92;95378.53;5037375;28;20064;-84
2023/12/26 01:57:35;;;;;;;39.97;18.08;;;;;;;4.18;71.93;95343.16;5037098;28;20124;-84
2023/12/26 02:00:04;;;;;;;44.95;19.17;;;;;;;4.32;71.86;95382.31;5037247;28;20037;-84
2023/12/26 02:02:32;;;;;;;41.92;18.10;;;;;;;4.55;72.44;95419.88;5037079;28;20044;-84
2023/12/26 02:04:58;;;;;;;41.47;17.90;;;;;;;3.98;72.16;95315.66;5055088;28;20404;-84
2023/12/26 02:07:23;;;;;;;36.28;17.80;;;;;;;3.57;71.71;95257.06;5054557;28;20508;-84
2023/12/26 02:09:49;;;;;;;42.00;17.50;;;;;;;4.10;71.67;95340.88;5036778;28;20037;-85
2023/12/26 02:12:16;;;;;;;41.67;17.17;;;;;;;3.78;71.17;95301.06;5036719;28;20113;-84
2023/12/26 02:14:42;;;;;;;46.35;16.10;;;;;;;3.29;72.01;95257.69;5054969;28;20037;-84
2023/12/26 02:17:12;;;;;;;43.28;17.15;;;;;;;4.35;72.09;95416.75;5036817;28;20090;-84
2023/12/26 02:19:42;;;;;;;36.25;17.63;;;;;;;3.72;72.36;95328.22;5036962;28;20491;-84
2023/12/26 02:22:08;;;;;;;42.17;16.45;;;;;;;4.45;72.72;95443.25;5036896;28;20036;-84
2023/12/26 02:24:34;;;;;;;36.47;16.58;;;;;;;4.36;72.92;95435.94;5036740;28;20035;-84
2023/12/26 02:27:00;;;;;;;33.85;16.25;;;;;;;3.89;73.29;95399.97;5055483;28;20112;-84
2023/12/26 02:29:28;;;;;;;38.80;16.52;;;;;;;4.17;73.38;95419.53;5054896;28;20025;-84
2023/12/26 02:31:55;;;;;;;35.72;16.95;;;;;;;3.27;73.20;95270.25;5054711;28;20037;-84
2023/12/26 02:34:22;;;;;;;40.60;16.38;;;;;;;3.36;73.25;95283.78;5036557;28;20487;-84
2023/12/26 02:36:48;;;;;;;35.13;15.55;;;;;;;2.84;73.46;95223.31;5037098;28;20065;-84
2023/12/26 02:39:14;;;;;;;39.63;16.42;;;;;;;4.17;73.34;95438.69;5054716;28;20032;-84
2023/12/26 02:41:40;;;;;;;41.70;20.33;;;;;;;3.37;72.97;95306.38;5036760;28;20155;-84
2023/12/26 02:44:06;;;;;;;64.32;24.30;;;;;;;3.94;72.96;95393.25;5036137;28;20063;-84
2023/12/26 02:46:31;;;;;;;59.25;23.95;;;;;;;3.95;72.21;95389.59;5035997;28;20463;-84
2023/12/26 02:48:57;;;;;;;60.38;25.48;;;;;;;3.55;71.65;95318.59;5036353;28;20040;-84
2023/12/26 02:51:23;;;;;;;63.75;24.48;;;;;;;4.43;72.16;95452.38;5054639;28;20025;-85
2023/12/26 02:53:48;;;;;;;55.10;23.85;;;;;;;4.46;71.85;95462.44;5036174;28;20031;-85
2023/12/26 02:56:14;;;;;;;56.95;24.35;;;;;;;4.31;71.79;95443.72;5036488;28;20028;-84
2023/12/26 02:58:40;;;;;;;62.63;24.33;;;;;;;4.08;71.76;95395.44;5036199;28;20052;-84
2023/12/26 03:01:05;;;;;;;68.88;24.35;;;;;;;3.51;71.35;95293.88;5036216;28;20101;-84
2023/12/26 03:03:31;;;;;;;54.83;22.75;;;;;;;4.63;70.89;95460.75;5035597;28;20174;-84
2023/12/26 03:05:57;;;;;;;50.10;21.90;;;;;;;4.59;70.95;95456.97;5036245;28;20031;-84
2023/12/26 03:08:23;;;;;;;53.30;21.08;;;;;;;4.28;71.23;95416.09;5053750;28;20029;-85
2023/12/26 03:10:49;;;;;;;58.20;22.90;;;;;;;4.53;71.05;95469.19;5035973;28;20033;-84
2023/12/26 03:13:15;;;;;;;51.03;22.27;;;;;;;4.03;71.11;95390.06;5035775;28;20037;-84
2023/12/26 03:15:40;;;;;;;50.95;22.05;;;;;;;4.00;71.05;95392.34;5054211;28;20525;-84
2023/12/26 03:18:06;;;;;;;57.58;23.67;;;;;;;4.39;71.28;95467.81;5053338;28;20033;-84
2023/12/26 03:20:31;;;;;;;45.50;20.70;;;;;;;4.40;71.56;95453.66;5036064;28;20132;-84
2023/12/26 03:22:57;;;;;;;45.05;20.15;;;;;;;4.30;71.39;95450.00;5035281;28;20061;-84
2023/12/26 03:25:23;;;;;;;54.30;20.60;;;;;;;3.10;70.96;95257.00;5036053;28;20482;-84
2023/12/26 03:27:49;;;;;;;51.78;21.08;;;;;;;4.46;71.38;95468.50;5035398;28;20025;-84
2023/12/26 03:30:15;;;;;;;49.22;19.35;;;;;;;4.43;70.95;95461.06;5053798;28;20029;-84
2023/12/26 03:32:41;;;;;;;53.58;20.50;;;;;;;3.85;70.85;95398.81;5053156;28;20471;-84
2023/12/26 03:35:06;;;;;;;53.58;21.52;;;;;;;3.50;70.76;95332.41;5035263;28;20539;-83
2023/12/26 03:37:32;;;;;;;51.38;21.88;;;;;;;4.26;71.38;95475.91;5036447;28;20033;-82
2023/12/26 03:39:57;;;;;;;56.20;21.05;;;;;;;3.27;71.05;95322.66;5054159;28;20043;-83
2023/12/26 03:42:23;;;;;;;48.90;19.48;;;;;;;4.09;71.70;95441.66;5036586;28;20182;-82
2023/12/26 03:44:49;;;;;;;45.65;18.83;;;;;;;3.01;71.40;95278.50;5036233;28;20036;-83
2023/12/26 03:47:14;;;;;;;46.22;17.33;;;;;;;3.07;71.86;95349.13;5054312;28;20044;-83
2023/12/26 03:49:40;;;;;;;33.22;17.20;;;;;;;1.91;72.09;95165.34;5036174;28;20040;-82
2023/12/26 03:52:05;;;;;;;37.75;17.75;;;;;;;4.03;72.24;95475.88;5036175;28;20024;-82
2023/12/26 03:54:31;;;;;;;35.80;15.57;;;;;;;3.94;71.75;95453.59;5035804;28;20025;-83
2023/12/26 03:56:56;;;;;;;40.97;17.35;;;;;;;3.49;71.99;95373.56;5053900;28;20037;-82
2023/12/26 03:59:22;;;;;;;39.97;16.63;;;;;;;4.10;72.07;95477.38;5036203;28;20025;-82
2023/12/26 04:01:47;;;;;;;42.03;16.38;;;;;;;3.78;72.22;95421.75;5036281;28;20044;-82
2023/12/26 04:04:13;;;;;;;42.25;17.48;;;;;;;4.20;71.89;95469.72;5035691;28;20037;-82
2023/12/26 04:06:38;;;;;;;43.05;18.13;;;;;;;3.83;71.64;95411.38;5035695;28;20514;-82
2023/12/26 04:09:04;;;;;;;47.30;17.77;;;;;;;3.10;71.61;95293.69;5036062;28;20040;-82
2023/12/26 04:11:32;;;;;;;41.65;16.83;;;;;;;3.68;71.66;95391.81;5054651;28;20039;-82
2023/12/26 04:13:57;;;;;;;53.60;17.65;;;;;;;3.78;71.47;95408.63;5035484;28;20028;-82
2023/12/26 04:16:23;;;;;;;49.92;18.95;;;;;;;4.00;71.29;95463.19;5053635;28;20037;-83
2023/12/26 04:18:48;;;;;;;42.00;18.27;;;;;;;3.99;71.41;95485.19;5054425;28;20040;-82
2023/12/26 04:21:14;;;;;;;43.17;17.15;;;;;;;2.44;72.44;95254.47;5053722;28;20040;-82
2023/12/26 04:23:39;;;;;;;45.53;18.30;;;;;;;1.81;72.00;95152.03;5054184;28;20120;-81
2023/12/26 04:26:06;;;;;;;53.20;17.70;;;;;;;3.51;71.92;95412.63;5035624;28;20041;-83
2023/12/26 04:28:32;;;;;;;39.08;15.82;;;;;;;3.04;72.19;95377.63;5054501;28;20033;-83
2023/12/26 04:30:58;;;;;;;40.85;17.15;;;;;;;3.79;72.63;95486.31;5035745;28;20163;-81
2023/12/26 04:33:25;;;;;;;45.25;18.08;;;;;;;3.79;72.24;95480.25;5036340;28;20055;-81
2023/12/26 04:35:50;;;;;;;43.25;17.35;;;;;;;3.74;73.15;95496.66;5035334;28;20061;-81
2023/12/26 04:38:16;;;;;;;45.50;18.35;;;;;;;2.88;72.46;95362.50;5035548;28;20461;-84
2023/12/26 04:40:41;;;;;;;37.60;16.42;;;;;;;2.14;72.30;95233.50;5035640;28;20461;-82
2023/12/26 04:43:08;;;;;;;47.53;18.45;;;;;;;3.40;72.53;95447.50;5054188;28;20040;-82
2023/12/26 04:45:38;;;;;;;42.50;17.65;;;;;;;2.87;72.91;95353.84;5053954;28;20036;-81
2023/12/26 04:48:08;;;;;;;47.42;16.88;;;;;;;3.40;72.57;95440.44;5035938;28;20033;-82
2023/12/26 04:50:34;;;;;;;36.58;16.23;;;;;;;2.37;72.19;95279.13;5036162;28;20036;-81
2023/12/26 04:53:02;;;;;;;35.50;16.85;;;;;;;1.53;71.96;95168.19;5036412;28;20083;-81
2023/12/26 04:55:27;;;;;;;39.13;16.10;;;;;;;2.15;72.64;95263.88;5035884;28;20036;-87
2023/12/26 04:57:53;;;;;;;38.78;17.05;;;;;;;2.31;72.96;95289.47;5051790;28;20037;-86
2023/12/26 05:00:19;;;;;;;36.90;16.35;;;;;;;3.18;72.58;95422.78;5033502;28;20507;-86
2023/12/26 05:02:44;;;;;;;36.97;16.13;;;;;;;3.56;72.86;95482.78;5034062;28;20427;-87
2023/12/26 05:05:09;;;;;;;42.72;16.38;;;;;;;3.57;72.35;95479.16;5051521;28;20467;-86
2023/12/26 05:07:35;;;;;;;42.53;16.73;;;;;;;3.44;72.31;95457.31;5051852;28;20029;-86
2023/12/26 05:10:01;;;;;;;38.60;15.55;;;;;;;3.35;71.78;95440.31;5055365;28;20037;-86
2023/12/26 05:12:27;;;;;;;40.30;16.00;;;;;;;3.64;72.35;95485.09;5038047;28;20033;-86
2023/12/26 05:14:53;;;;;;;38.58;16.30;;;;;;;3.51;72.39;95461.69;5037580;28;20029;-86
2023/12/26 05:17:19;;;;;;;33.38;14.35;;;;;;;3.53;71.95;95476.16;5056261;28;20043;-87
2023/12/26 05:19:44;;;;;;;38.67;15.88;;;;;;;3.58;72.35;95478.13;5037820;28;20037;-87
2023/12/26 05:22:10;;;;;;;33.85;16.67;;;;;;;3.59;72.48;95475.25;5037414;28;20064;-86
2023/12/26 05:24:36;;;;;;;39.03;15.82;;;;;;;3.58;72.43;95478.94;5055479;28;20112;-86
2023/12/26 05:27:01;;;;;;;31.48;15.65;;;;;;;3.22;71.69;95413.44;5037718;28;20029;-86
2023/12/26 05:29:28;;;;;;;34.58;13.93;;;;;;;3.12;71.64;95387.78;5037091;28;20029;-87
2023/12/26 05:31:53;;;;;;;40.75;15.60;;;;;;;3.10;71.93;95419.47;5037147;28;20101;-86
2023/12/26 05:34:19;;;;;;;37.40;15.48;;;;;;;3.36;72.78;95452.38;5037447;28;20076;-86
2023/12/26 05:36:45;;;;;;;33.17;14.25;;;;;;;3.24;72.29;95429.75;5040720;28;20037;-88
2023/12/26 05:39:10;;;;;;;40.08;14.32;;;;;;;3.69;72.16;95499.16;5041059;28;20055;-88
2023/12/26 05:41:36;;;;;;;47.03;14.45;;;;;;;3.55;72.37;95482.00;5058864;28;20036;-88
2023/12/26 05:44:02;;;;;;;36.60;15.45;;;;;;;3.47;73.43;95490.16;5041540;28;20032;-88
2023/12/26 05:46:31;;;;;;;41.40;14.73;;;;;;;3.55;73.19;95492.47;5041203;28;20028;-87
2023/12/26 05:48:58;;;;;;;44.10;17.40;;;;;;;2.97;73.04;95400.47;5042115;28;20029;-89
2023/12/26 05:51:23;;;;;;;28.55;14.65;;;;;;;3.04;72.69;95406.44;5043224;28;20092;-89
2023/12/26 05:53:49;;;;;;;34.65;15.63;;;;;;;3.06;72.77;95407.78;5045850;28;20036;-88
2023/12/26 05:56:15;;;;;;;39.20;15.02;;;;;;;3.12;72.99;95421.06;5061258;28;20051;-87
2023/12/26 05:58:40;;;;;;;34.47;14.98;;;;;;;3.48;73.06;95489.16;5060056;28;20056;-88
2023/12/26 06:01:12;;;;;;;30.92;13.85;;;;;;;3.67;73.19;95508.25;5042498;28;20061;-88
2023/12/26 06:03:38;;;;;;;36.67;14.77;;;;;;;2.87;72.76;95395.75;5041424;28;20506;-88
2023/12/26 06:06:08;;;;;;;36.50;14.43;;;;;;;3.63;72.71;95513.16;5057117;28;20036;-84
2023/12/26 06:08:34;;;;;;;37.30;14.77;;;;;;;3.67;72.80;95501.19;5055309;28;20582;-84
2023/12/26 06:11:00;;;;;;;28.40;13.57;;;;;;;2.65;72.78;95360.56;5037556;28;20033;-84
2023/12/26 06:13:26;;;;;;;40.70;15.02;;;;;;;3.22;72.68;95452.75;5036949;28;20029;-84
2023/12/26 06:15:52;;;;;;;39.60;16.50;;;;;;;2.96;72.56;95411.97;5036966;28;20032;-84
2023/12/26 06:18:17;;;;;;;36.35;15.93;;;;;;;3.35;72.45;95470.97;5055389;28;20037;-84
2023/12/26 06:20:43;;;;;;;34.78;15.85;;;;;;;3.73;72.64;95523.13;5054092;28;20060;-84
2023/12/26 06:23:08;;;;;;;40.38;16.08;;;;;;;3.59;72.49;95525.09;5037264;28;20053;-84
2023/12/26 06:25:34;;;;;;;50.15;19.00;;;;;;;3.62;73.13;95521.25;5036871;28;20029;-85
2023/12/26 06:27:59;;;;;;;45.75;18.33;;;;;;;3.25;73.26;95462.81;5036385;28;20165;-84
2023/12/26 06:30:25;;;;;;;43.38;17.70;;;;;;;3.25;72.95;95463.63;5037406;28;20021;-84
2023/12/26 06:32:51;;;;;;;46.38;18.77;;;;;;;3.71;72.95;95533.03;5037078;28;20397;-84
2023/12/26 06:35:17;;;;;;;47.08;18.65;;;;;;;2.57;73.17;95347.78;5054413;28;20071;-85
2023/12/26 06:37:43;;;;;;;49.50;19.23;;;;;;;2.80;73.00;95384.56;5036287;28;20044;-84
2023/12/26 06:40:08;;;;;;;41.80;18.45;;;;;;;3.06;72.77;95434.00;5054519;28;20040;-85
2023/12/26 06:42:34;;;;;;;46.28;18.83;;;;;;;2.70;73.16;95355.47;5054472;28;20059;-85
2023/12/26 06:45:00;;;;;;;46.60;20.75;;;;;;;3.82;73.28;95529.63;5036805;28;20037;-88
2023/12/26 06:47:25;;;;;;;51.80;21.13;;;;;;;2.78;72.82;95364.84;5041257;28;20043;-89
2023/12/26 06:49:53;;;;;;;57.95;22.63;;;;;;;3.50;72.90;95484.50;5041090;28;20036;-88
2023/12/26 06:52:19;;;;;;;60.47;23.52;;;;;;;3.18;72.94;95430.66;5058982;28;20055;-88
2023/12/26 06:54:44;;;;;;;54.65;23.23;;;;;;;3.95;72.96;95533.94;5040406;28;20021;-89
2023/12/26 06:57:16;;;;;;;59.38;23.10;;;;;;;3.32;72.78;95443.38;5040257;28;20414;-89
2023/12/26 06:59:47;;;;;;;64.30;24.05;;;;;;;2.93;73.02;95379.16;5043608;28;20039;-88
2023/12/26 07:02:13;;;;;;;55.45;26.00;;;;;;;3.79;73.24;95517.78;5040893;28;20039;-88
2023/12/26 07:04:41;;;;;;;65.78;28.67;;;;;;;3.77;72.97;95514.56;5040680;28;20125;-89
2023/12/26 07:07:07;;;;;;;64.35;27.83;;;;;;;4.03;73.19;95541.50;5040906;28;20040;-88
2023/12/26 07:09:33;;;;;;;81.05;28.88;;;;;;;3.44;73.13;95453.88;5040852;28;20029;-88
2023/12/26 07:11:58;;;;;;;69.85;28.10;;;;;;;4.02;73.21;95553.81;5059203;28;20116;-89
2023/12/26 07:14:24;;;;;;;66.38;26.42;;;;;;;3.64;73.14;95480.66;5041705;28;20052;-89
2023/12/26 07:16:49;;;;;;;72.78;28.35;;;;;;;4.01;73.10;95539.06;5036948;28;20028;-87
2023/12/26 07:19:15;;;;;;;59.72;27.40;;;;;;;3.79;73.06;95496.81;5036311;28;20040;-86
2023/12/26 07:21:40;;;;;;;65.63;26.08;;;;;;;4.22;72.90;95564.00;5054691;28;20496;-87
2023/12/26 07:24:06;;;;;;;62.10;25.25;;;;;;;4.28;72.52;95571.78;5035765;28;20028;-86
2023/12/26 07:26:33;;;;;;;49.70;22.67;;;;;;;3.38;72.37;95429.38;5036225;28;20085;-87
2023/12/26 07:28:58;;;;;;;52.70;23.92;;;;;;;4.17;72.34;95540.28;5036230;28;20056;-87
2023/12/26 07:31:25;;;;;;;47.75;23.25;;;;;;;4.24;72.65;95552.28;5035315;28;20519;-86
2023/12/26 07:33:51;;;;;;;51.63;22.05;;;;;;;4.44;72.54;95569.53;5035358;28;20499;-86
2023/12/26 07:36:17;;;;;;;54.15;22.38;;;;;;;4.31;72.15;95539.03;5036338;28;20110;-86
2023/12/26 07:38:44;;;;;;;53.60;22.50;;;;;;;4.13;72.46;95524.16;5053586;28;20418;-86
2023/12/26 07:41:10;;;;;;;56.83;22.15;;;;;;;4.41;72.53;95562.94;5036159;28;20416;-86
2023/12/26 07:43:36;;;;;;;49.08;23.25;;;;;;;4.44;72.28;95557.22;5054124;28;20392;-86
2023/12/26 07:46:01;;;;;;;41.13;19.83;;;;;;;3.78;72.47;95444.53;5054211;28;20043;-86
2023/12/26 07:48:27;;;;;;;42.20;19.60;;;;;;;3.99;71.89;95472.88;5053500;28;20059;-86
2023/12/26 07:50:53;;;;;;;50.85;19.95;;;;;;;4.26;71.83;95521.34;5053693;28;20064;-86
2023/12/26 07:53:18;;;;;;;53.38;23.58;;;;;;;3.82;71.60;95446.50;5035556;28;20477;-86
2023/12/26 07:55:44;;;;;;;50.75;24.27;;;;;;;4.57;72.18;95556.22;5036236;28;20029;-86
2023/12/26 07:58:09;;;;;;;56.17;23.90;;;;;;;4.49;71.98;95525.84;5054279;28;20037;-86
2023/12/26 08:00:35;;;;;;;48.95;22.67;;;;;;;4.39;71.85;95511.66;5036850;28;20024;-86
2023/12/26 08:03:00;;;;;;;53.47;24.60;;;;;;;3.93;71.30;95441.50;5054215;28;20044;-87
2023/12/26 08:05:26;;;;;;;51.33;22.27;;;;;;;4.26;71.66;95481.97;5036453;28;20127;-86
2023/12/26 08:07:51;;;;;;;53.47;23.00;;;;;;;4.56;71.20;95521.28;5053389;28;20577;-86
2023/12/26 08:10:17;;;;;;;52.70;24.00;;;;;;;4.74;71.59;95551.88;5053140;28;20029;-86
2023/12/26 08:12:43;;;;;;;59.35;24.20;;;;;;;4.14;71.13;95449.63;5034927;28;20360;-86
2023/12/26 08:15:11;;;;;;;46.35;22.80;;;;;;;4.13;71.69;95457.72;5034885;28;20024;-86
2023/12/26 08:17:37;;;;;;;51.72;22.55;;;;;;;4.75;71.92;95556.13;5043501;28;20037;-86
2023/12/26 08:20:03;;;;;;;49.60;23.35;;;;;;;4.56;72.45;95518.66;5014456;28;20033;-86
2023/12/26 08:22:29;;;;;;;57.55;22.30;;;;;;;4.54;72.25;95498.88;5032247;28;20022;-86
2023/12/26 08:24:55;;;;;;;43.85;22.33;;;;;;;5.01;71.96;95568.81;5014580;28;20041;-81
2023/12/26 08:27:22;;;;;;;48.38;21.85;;;;;;;5.00;71.16;95550.66;5016284;28;20030;-82
2023/12/26 08:29:48;;;;;;;45.90;20.67;;;;;;;4.68;71.60;95507.34;5033768;28;20063;-81
2023/12/26 08:32:14;;;;;;;47.25;22.40;;;;;;;4.80;71.01;95503.69;5033598;28;20036;-81
2023/12/26 08:34:44;;;;;;;45.65;21.15;;;;;;;4.44;71.00;95441.66;5016519;28;20043;-81
2023/12/26 08:37:10;;;;;;;41.53;20.58;;;;;;;4.98;71.03;95536.91;5015997;28;20051;-82
2023/12/26 08:39:36;;;;;;;44.83;21.23;;;;;;;5.09;70.87;95549.28;5015573;28;20052;-82
2023/12/26 08:42:02;;;;;;;59.75;22.08;;;;;;;4.97;70.34;95515.09;5014840;28;20034;-82
2023/12/26 08:44:27;;;;;;;44.90;22.90;;;;;;;4.97;70.62;95485.38;5015086;28;20033;-82
2023/12/26 08:46:53;;;;;;;45.95;22.45;;;;;;;5.38;71.21;95572.00;5015753;28;20033;-82
2023/12/26 08:49:18;;;;;;;56.95;23.23;;;;;;;4.73;70.96;95462.81;5016314;28;20033;-83
2023/12/26 08:51:44;;;;;;;52.15;23.35;;;;;;;4.46;70.85;95396.78;5033978;28;20033;-81
2023/12/26 08:54:11;;;;;;;55.05;24.70;;;;;;;4.24;70.33;95352.75;5015394;28;20076;-82
2023/12/26 08:56:39;;;;;;;48.65;25.20;;;;;;;4.93;70.80;95455.34;5015426;28;20034;-82
2023/12/26 08:59:05;;;;;;;62.65;23.38;;;;;;;4.96;70.61;95442.53;5016060;28;20045;-83
2023/12/26 09:01:30;;;;;;;60.60;25.60;;;;;;;5.16;70.01;95460.56;5015769;28;20120;-81
2023/12/26 09:03:56;;;;;;;53.80;25.35;;;;;;;5.86;69.64;95552.44;5015778;28;20084;-81
2023/12/26 09:06:21;;;;;;;62.15;26.60;;;;;;;5.74;69.79;95528.75;5033074;28;20714;-86
2023/12/26 09:08:47;;;;;;;55.97;26.50;;;;;;;5.84;69.54;95530.78;5014651;28;20523;-86
2023/12/26 09:11:13;;;;;;;52.40;24.83;;;;;;;4.51;69.00;95304.97;5015052;28;20487;-86
2023/12/26 09:13:39;;;;;;;59.20;24.75;;;;;;;5.51;69.83;95446.47;5015161;28;20057;-86
2023/12/26 09:16:05;;;;;;;57.60;25.08;;;;;;;5.96;69.49;95496.53;5015018;28;20543;-86
2023/12/26 09:18:30;;;;;;;58.95;25.40;;;;;;;5.85;68.88;95477.13;5032899;28;20033;-86
2023/12/26 09:20:56;;;;;;;59.50;24.75;;;;;;;6.17;69.27;95503.78;5033857;28;20045;-86
2023/12/26 09:23:21;;;;;;;54.05;24.75;;;;;;;5.95;68.60;95464.16;5018722;28;20038;-86
2023/12/26 09:25:47;;;;;;;51.50;24.30;;;;;;;6.19;68.56;95497.22;5036695;28;20044;-86
2023/12/26 09:28:13;;;;;;;52.90;25.40;;;;;;;6.06;68.11;95447.50;5016732;28;20491;-86
2023/12/26 09:30:41;;;;;;;56.95;24.67;;;;;;;6.09;67.91;95451.50;5017475;28;20033;-86
2023/12/26 09:33:07;;;;;;;53.38;24.10;;;;;;;6.31;67.89;95473.47;5018049;28;20037;-86
2023/12/26 09:35:33;;;;;;;60.08;26.80;;;;;;;6.55;68.01;95505.72;5017848;28;20057;-86
2023/12/26 09:37:58;;;;;;;53.35;24.55;;;;;;;6.35;67.84;95458.75;5021427;28;20424;-86
2023/12/26 09:40:24;;;;;;;59.15;26.42;;;;;;;6.31;67.81;95441.06;5021228;28;20034;-86
2023/12/26 09:42:50;;;;;;;53.03;24.70;;;;;;;5.25;67.14;95240.13;5019120;28;20034;-86
2023/12/26 09:45:15;;;;;;;50.28;25.05;;;;;;;6.85;66.65;95481.66;5018473;28;20083;-86
2023/12/26 09:47:42;;;;;;;56.83;26.55;;;;;;;6.25;66.22;95392.78;5016993;28;20033;-86
2023/12/26 09:50:10;;;;;;;64.45;29.13;;;;;;;6.93;66.52;95482.03;5017559;28;20037;-86
2023/12/26 09:52:38;;;;;;;63.08;27.83;;;;;;;5.64;66.52;95265.47;5035113;28;20052;-86
2023/12/26 09:55:04;;;;;;;58.10;26.55;;;;;;;6.26;65.81;95351.41;5020082;28;20029;-86
2023/12/26 09:57:30;;;;;;;57.20;28.15;;;;;;;6.99;65.78;95469.72;5038142;28;20475;-85
2023/12/26 09:59:56;;;;;;;59.95;29.45;;;;;;;6.62;65.72;95379.06;5020365;28;20061;-86
2023/12/26 10:02:21;;;;;;;69.65;30.27;;;;;;;7.34;65.78;95472.00;5038189;28;20033;-86
2023/12/26 10:04:48;;;;;;;62.72;31.30;;;;;;;7.00;65.48;95407.22;5036475;28;20036;-86
2023/12/26 10:07:14;;;;;;;66.53;27.52;;;;;;;6.71;65.25;95359.97;5018179;28;20419;-86
2023/12/26 10:09:41;;;;;;;56.70;27.25;;;;;;;6.47;65.00;95309.31;5022681;28;20080;-88
2023/12/26 10:12:07;;;;;;;59.22;26.73;;;;;;;7.28;64.48;95425.50;5022358;28;20091;-88
2023/12/26 10:14:32;;;;;;;51.83;25.20;;;;;;;7.29;63.75;95427.09;5022930;28;20025;-88
2023/12/26 10:16:58;;;;;;;49.03;23.00;;;;;;;7.67;63.51;95458.66;5025356;28;20048;-84
2023/12/26 10:19:25;;;;;;;62.70;24.67;;;;;;;8.07;63.57;95431.84;5024668;28;20033;-84
2023/12/26 10:21:53;;;;;;;44.50;21.52;;;;;;;9.02;60.72;95438.06;5023569;28;20053;-84
2023/12/26 10:24:20;;;;;;;38.75;20.10;;;;;;;9.90;57.62;95446.09;5022093;28;20038;-84
2023/12/26 10:26:48;;;;;;;42.65;20.58;;;;;;;10.88;54.48;95435.22;5020574;28;20056;-84
2023/12/26 10:29:15;;;;;;;41.25;19.15;;;;;;;11.50;51.12;95405.56;5020385;28;20040;-84
2023/12/26 10:31:42;;;;;;;43.38;17.05;;;;;;;12.38;48.94;95395.69;5037595;28;20033;-84
2023/12/26 10:34:19;;;;;;;39.45;18.08;;;;;;;13.52;46.40;95422.47;5019074;28;20077;-84
2023/12/26 10:36:49;;;;;;;39.03;16.08;;;;;;;14.26;43.49;95425.47;5036963;28;20358;-84
2023/12/26 10:39:15;;;;;;;26.30;12.13;;;;;;;14.33;41.70;95353.06;5019101;28;20033;-84
2023/12/26 10:41:46;;;;;;;40.38;12.38;;;;;;;15.25;40.44;95430.47;5017580;28;20048;-84
2023/12/26 10:44:15;;;;;;;28.53;12.87;;;;;;;15.48;39.69;95423.34;5036617;28;20033;-84
2023/12/26 10:46:42;;;;;;;33.30;14.20;;;;;;;15.57;39.29;95373.47;5018383;28;20383;-84
2023/12/26 10:49:10;;;;;;;35.15;13.80;;;;;;;15.65;39.43;95386.13;5018093;28;20052;-84
2023/12/26 10:51:46;;;;;;;37.30;15.45;;;;;;;15.64;39.39;95396.03;5035080;28;20233;-84
2023/12/26 10:54:24;;;;;;;33.17;14.75;;;;;;;15.99;38.72;95421.22;5017023;28;20040;-84
2023/12/26 10:56:51;;;;;;;40.08;16.50;;;;;;;16.09;38.54;95412.19;5016752;28;20030;-84
2023/12/26 13:54:13;;;;;;;28.70;8.30;;;;;;;14.02;42.40;95240.78;5035952;28;20151;-86
2023/12/26 13:57:16;;;;;;;20.52;8.13;;;;;;;13.95;42.52;95251.03;5035382;28;20034;-86
2023/12/26 14:00:18;;;;;;;26.88;8.40;;;;;;;13.82;42.94;95240.00;5015292;28;20045;-86
2023/12/26 14:03:22;;;;;;;28.35;8.00;;;;;;;13.76;42.89;95230.53;5016417;28;20041;-87
2023/12/26 14:06:26;;;;;;;16.75;8.35;;;;;;;13.59;43.36;95235.59;5035628;28;20041;-86
2023/12/26 14:09:29;;;;;;;21.70;8.25;;;;;;;13.39;43.61;95238.56;5017102;28;20087;-86
2023/12/26 14:12:32;;;;;;;23.48;8.23;;;;;;;13.36;43.71;95237.25;5035728;28;20088;-86
2023/12/26 14:15:35;;;;;;;20.00;8.38;;;;;;;13.33;43.62;95235.19;5014831;28;20057;-86
2023/12/26 14:18:38;;;;;;;23.17;9.05;;;;;;;13.17;43.84;95225.03;5028484;28;20136;-86